createdAt,value
2022-08-30T00:00:42.300Z,17.39
2022-08-30T00:03:14.580Z,17.45
2022-08-30T00:05:43.161Z,17.68
2022-08-30T00:08:11.614Z,17.61
2022-08-30T00:10:40.755Z,17.69
2022-08-30T00:13:10.154Z,17.59
2022-08-30T00:15:38.109Z,17.60
2022-08-30T00:18:06.482Z,17.58
2022-08-30T00:20:37.298Z,17.53
2022-08-30T00:23:06.216Z,17.42
2022-08-30T00:25:34.697Z,17.55
2022-08-30T00:28:03.449Z,17.54
2022-08-30T00:30:31.705Z,17.34
2022-08-30T00:33:00.008Z,17.14
2022-08-30T00:35:28.391Z,17.11
2022-08-30T00:37:57.832Z,16.96
2022-08-30T00:40:27.972Z,16.82
2022-08-30T00:42:59.276Z,16.71
2022-08-30T00:45:30.856Z,16.53
2022-08-30T00:47:59.504Z,16.29
2022-08-30T00:50:32.040Z,16.22
2022-08-30T00:53:06.078Z,16.48
2022-08-30T00:55:34.325Z,16.45
2022-08-30T00:58:09.516Z,16.53
2022-08-30T01:00:37.872Z,16.55
2022-08-30T01:03:09.239Z,16.31
2022-08-30T01:05:39.539Z,16.03
2022-08-30T01:08:08.866Z,15.83
2022-08-30T01:10:38.658Z,15.70
2022-08-30T01:13:06.925Z,15.60
2022-08-30T01:15:35.307Z,15.51
2022-08-30T01:18:07.698Z,15.53
2022-08-30T01:20:41.776Z,15.47
2022-08-30T01:23:14.401Z,15.32
2022-08-30T01:25:45.164Z,15.30
2022-08-30T01:28:18.995Z,15.16
2022-08-30T01:30:47.559Z,15.02
2022-08-30T01:33:15.935Z,14.89
2022-08-30T01:35:49.837Z,14.72
2022-08-30T01:38:21.872Z,14.60
2022-08-30T01:40:50.001Z,14.58
2022-08-30T01:43:19.489Z,14.52
2022-08-30T01:45:47.556Z,14.49
2022-08-30T01:48:15.869Z,14.49
2022-08-30T01:50:45.046Z,14.43
2022-08-30T01:53:14.644Z,14.40
2022-08-30T01:55:44.309Z,14.31
2022-08-30T01:58:12.751Z,14.23
2022-08-30T02:00:41.227Z,14.18
2022-08-30T02:03:09.252Z,14.08
2022-08-30T02:05:37.415Z,13.98
2022-08-30T02:08:05.964Z,13.92
2022-08-30T02:10:34.394Z,13.88
2022-08-30T02:13:04.613Z,13.88
2022-08-30T02:15:33.036Z,13.88
2022-08-30T02:18:11.128Z,13.87
2022-08-30T02:20:40.465Z,13.97
2022-08-30T02:23:08.430Z,13.96
2022-08-30T02:25:36.443Z,14.15
2022-08-30T02:28:06.740Z,14.01
2022-08-30T02:30:35.207Z,13.89
2022-08-30T02:33:03.382Z,14.05
2022-08-30T02:35:31.350Z,14.61
2022-08-30T02:37:59.321Z,14.65
2022-08-30T02:40:27.369Z,14.51
2022-08-30T02:42:55.455Z,14.31
2022-08-30T02:45:27.513Z,14.10
2022-08-30T02:47:56.483Z,13.95
2022-08-30T02:50:25.382Z,13.81
2022-08-30T02:52:54.357Z,13.65
2022-08-30T02:55:24.353Z,13.51
2022-08-30T02:57:52.461Z,13.42
2022-08-30T03:00:22.106Z,13.31
2022-08-30T03:02:51.365Z,13.21
2022-08-30T03:05:19.768Z,13.12
2022-08-30T03:07:48.497Z,13.06
2022-08-30T03:10:17.906Z,13.01
2022-08-30T03:12:47.851Z,13.03
2022-08-30T03:15:17.397Z,12.97
2022-08-30T03:17:45.411Z,12.94
2022-08-30T03:20:14.717Z,12.94
2022-08-30T03:22:42.687Z,12.91
2022-08-30T03:25:11.169Z,12.89
2022-08-30T03:27:39.551Z,12.91
2022-08-30T03:30:08.965Z,12.91
2022-08-30T03:32:37.098Z,12.92
2022-08-30T03:35:06.157Z,12.86
2022-08-30T03:37:36.265Z,12.81
2022-08-30T03:40:05.506Z,12.77
2022-08-30T03:42:34.546Z,12.83
2022-08-30T03:45:03.183Z,12.87
2022-08-30T03:47:31.452Z,12.79
2022-08-30T03:49:59.934Z,12.70
2022-08-30T03:52:28.207Z,12.65
2022-08-30T03:54:57.630Z,12.61
2022-08-30T03:57:25.663Z,12.62
2022-08-30T03:59:53.756Z,12.63
2022-08-30T04:02:23.456Z,12.65
2022-08-30T04:04:51.782Z,12.61
2022-08-30T04:07:20.106Z,12.57
2022-08-30T04:09:48.291Z,12.56
2022-08-30T04:12:18.398Z,12.58
2022-08-30T04:14:51.200Z,12.56
2022-08-30T04:17:19.419Z,12.57
2022-08-30T04:19:47.560Z,12.52
2022-08-30T04:22:15.656Z,12.52
2022-08-30T04:24:43.821Z,12.46
2022-08-30T04:27:11.926Z,12.38
2022-08-30T04:29:41.286Z,12.40
2022-08-30T04:32:09.335Z,12.78
2022-08-30T04:34:37.468Z,12.69
2022-08-30T04:37:05.715Z,12.63
2022-08-30T04:39:38.070Z,12.56
2022-08-30T04:42:06.895Z,12.49
2022-08-30T04:44:35.467Z,12.45
2022-08-30T04:47:05.042Z,12.41
2022-08-30T04:49:33.096Z,12.46
2022-08-30T04:52:01.216Z,12.48
2022-08-30T04:54:29.236Z,12.50
2022-08-30T04:56:57.220Z,12.57
2022-08-30T04:59:25.213Z,12.64
2022-08-30T05:01:53.245Z,12.72
2022-08-30T05:04:22.662Z,12.70
2022-08-30T05:06:50.631Z,12.69
2022-08-30T05:09:18.607Z,12.71
2022-08-30T05:11:46.983Z,12.77
2022-08-30T05:14:15.458Z,12.83
2022-08-30T05:16:44.249Z,12.85
2022-08-30T05:19:12.301Z,12.92
2022-08-30T05:21:41.720Z,13.20
2022-08-30T05:24:10.170Z,13.27
2022-08-30T05:26:40.049Z,13.52
2022-08-30T05:29:08.081Z,13.67
2022-08-30T05:31:37.676Z,13.95
2022-08-30T05:34:06.058Z,14.14
2022-08-30T05:36:36.050Z,14.30
2022-08-30T05:39:05.988Z,14.29
2022-08-30T05:41:35.294Z,14.30
2022-08-30T05:44:06.642Z,14.32
2022-08-30T05:49:09.645Z,14.40
2022-08-30T05:51:43.118Z,14.48
2022-08-30T05:54:14.585Z,14.55
2022-08-30T05:56:45.404Z,14.65
2022-08-30T05:59:14.495Z,14.73
2022-08-30T06:01:44.856Z,14.84
2022-08-30T06:04:14.210Z,14.97
2022-08-30T06:06:43.943Z,15.18
2022-08-30T06:09:13.817Z,15.40
2022-08-30T06:11:42.195Z,15.64
2022-08-30T06:14:10.462Z,15.89
2022-08-30T06:16:40.026Z,16.18
2022-08-30T06:19:10.848Z,16.47
2022-08-30T06:21:40.452Z,16.83
2022-08-30T06:24:09.084Z,17.05
2022-08-30T06:26:41.728Z,17.29
2022-08-30T06:29:10.838Z,17.61
2022-08-30T06:31:39.240Z,18.10
2022-08-30T06:34:07.495Z,18.33
2022-08-30T06:36:36.274Z,18.19
2022-08-30T06:39:05.061Z,18.31
2022-08-30T06:41:35.879Z,18.43
2022-08-30T06:44:08.897Z,18.40
2022-08-30T06:46:39.292Z,18.76
2022-08-30T06:49:09.106Z,19.10
2022-08-30T06:51:39.740Z,19.21
2022-08-30T06:54:09.173Z,19.38
2022-08-30T06:56:40.277Z,19.45
2022-08-30T06:59:11.830Z,19.54
2022-08-30T07:01:39.841Z,19.82
2022-08-30T07:04:07.911Z,19.91
2022-08-30T07:06:36.427Z,20.44
2022-08-30T07:09:04.792Z,20.55
2022-08-30T07:11:35.529Z,20.81
2022-08-30T07:14:04.893Z,20.96
2022-08-30T07:16:35.115Z,21.48
2022-08-30T07:19:05.336Z,21.66
2022-08-30T07:21:35.061Z,21.50
2022-08-30T07:24:04.670Z,21.76
2022-08-30T07:26:38.560Z,21.89
2022-08-30T07:29:06.448Z,22.20
2022-08-30T07:31:37.503Z,22.26
2022-08-30T07:34:06.239Z,22.54
2022-08-30T07:36:35.193Z,22.33
2022-08-30T07:39:03.604Z,22.24
2022-08-30T07:41:35.577Z,22.84
2022-08-30T07:44:04.281Z,23.12
2022-08-30T07:46:32.969Z,23.19
2022-08-30T07:49:03.897Z,23.08
2022-08-30T07:51:32.889Z,23.19
2022-08-30T07:54:01.394Z,23.57
2022-08-30T07:56:29.549Z,24.05
2022-08-30T07:58:57.597Z,24.06
2022-08-30T08:01:25.901Z,24.37
2022-08-30T08:03:54.086Z,24.46
2022-08-30T08:06:25.082Z,24.44
2022-08-30T08:08:53.693Z,24.74
2022-08-30T08:11:28.432Z,25.26
2022-08-30T08:13:59.950Z,25.83
2022-08-30T08:16:30.566Z,26.02
2022-08-30T08:18:58.865Z,26.34
2022-08-30T08:21:29.016Z,26.22
2022-08-30T08:23:57.036Z,26.39
2022-08-30T08:26:25.182Z,26.40
2022-08-30T08:28:53.392Z,26.43
2022-08-30T08:31:23.990Z,26.82
2022-08-30T08:33:56.178Z,27.02
2022-08-30T08:36:24.482Z,27.07
2022-08-30T08:38:54.395Z,27.39
2022-08-30T08:41:41.301Z,27.20
2022-08-30T08:44:19.722Z,27.82
2022-08-30T08:46:58.646Z,28.06
2022-08-30T08:49:26.820Z,28.65
2022-08-30T08:52:22.423Z,28.73
2022-08-30T08:54:59.049Z,28.90
2022-08-30T08:57:30.257Z,28.56
2022-08-30T08:59:59.225Z,28.42
2022-08-30T09:02:32.462Z,28.62
2022-08-30T09:05:03.506Z,29.01
2022-08-30T09:07:36.854Z,29.28
2022-08-30T09:10:07.605Z,29.04
2022-08-30T09:12:35.724Z,29.74
2022-08-30T09:15:08.140Z,30.50
2022-08-30T09:17:52.562Z,30.64
2022-08-30T09:20:31.733Z,31.00
2022-08-30T09:23:00.851Z,31.04
2022-08-30T09:25:32.409Z,31.63
2022-08-30T09:28:12.876Z,30.60
2022-08-30T09:30:41.437Z,30.50
2022-08-30T09:33:20.651Z,30.54
2022-08-30T09:35:52.025Z,31.15
2022-08-30T09:38:24.842Z,30.87
2022-08-30T09:40:56.776Z,30.99
2022-08-30T09:43:27.733Z,31.00
2022-08-30T09:46:10.937Z,31.06
2022-08-30T09:48:46.394Z,31.03
2022-08-30T09:51:38.624Z,31.89
2022-08-30T09:54:20.136Z,32.34
2022-08-30T09:57:01.738Z,32.31
2022-08-30T09:59:47.741Z,32.16
2022-08-30T10:02:48.650Z,30.84
2022-08-30T10:05:23.713Z,30.81
2022-08-30T10:08:02.951Z,31.09
2022-08-30T10:10:37.862Z,31.40
2022-08-30T10:13:29.719Z,32.50
2022-08-30T10:16:11.964Z,32.83
2022-08-30T10:18:50.710Z,32.31
2022-08-30T10:21:25.324Z,32.99
2022-08-30T10:23:58.797Z,32.69
2022-08-30T10:26:33.666Z,33.16
2022-08-30T10:29:09.570Z,32.66
2022-08-30T10:31:43.497Z,32.68
2022-08-30T10:34:17.320Z,33.64
2022-08-30T10:36:51.836Z,33.48
2022-08-30T10:39:25.186Z,33.35
2022-08-30T10:42:01.043Z,33.16
2022-08-30T10:44:35.237Z,32.92
2022-08-30T10:47:11.735Z,32.87
2022-08-30T10:49:47.077Z,32.92
2022-08-30T10:52:31.058Z,33.10
2022-08-30T10:55:02.689Z,32.94
2022-08-30T10:57:30.689Z,32.63
2022-08-30T11:00:05.912Z,33.06
2022-08-30T11:02:57.622Z,32.60
2022-08-30T11:05:42.116Z,33.15
2022-08-30T11:08:20.547Z,33.48
2022-08-30T11:11:01.133Z,32.83
2022-08-30T11:13:32.449Z,32.08
2022-08-30T11:16:05.433Z,32.73
2022-08-30T11:18:41.781Z,33.73
2022-08-30T11:21:24.211Z,33.62
2022-08-30T11:24:02.367Z,34.38
2022-08-30T11:26:58.376Z,34.59
2022-08-30T11:29:39.822Z,35.68
2022-08-30T11:32:46.672Z,35.27
2022-08-30T11:35:38.426Z,35.66
2022-08-30T11:38:20.332Z,35.44
2022-08-30T11:41:07.169Z,34.67
2022-08-30T11:43:55.524Z,35.25
2022-08-30T11:46:40.294Z,35.01
2022-08-30T11:49:51.042Z,32.53
2022-08-30T11:52:42.016Z,33.16
2022-08-30T11:55:34.002Z,34.48
2022-08-30T11:58:16.912Z,34.58
2022-08-30T12:00:52.902Z,35.00
2022-08-30T12:03:32.804Z,34.08
2022-08-30T12:06:04.054Z,33.27
2022-08-30T12:09:02.345Z,33.88
2022-08-30T12:12:05.522Z,33.74
2022-08-30T12:14:48.838Z,34.17
2022-08-30T12:17:46.538Z,35.08
2022-08-30T12:20:22.816Z,34.19
2022-08-30T12:22:53.803Z,35.14
2022-08-30T12:25:31.866Z,34.23
2022-08-30T12:28:15.132Z,34.22
2022-08-30T12:30:46.879Z,34.83
2022-08-30T12:33:29.520Z,33.77
2022-08-30T12:35:59.395Z,33.59
2022-08-30T12:38:30.772Z,34.90
2022-08-30T12:41:05.599Z,34.96
2022-08-30T12:43:40.798Z,34.48
2022-08-30T12:46:15.359Z,34.48
2022-08-30T12:48:45.229Z,34.09
2022-08-30T12:51:29.377Z,34.61
2022-08-30T12:54:08.773Z,34.51
2022-08-30T12:56:52.871Z,35.08
2022-08-30T12:59:56.769Z,34.05
2022-08-30T13:02:30.063Z,34.82
2022-08-30T13:04:59.306Z,34.95
2022-08-30T13:07:32.555Z,34.43
2022-08-30T13:10:12.069Z,34.55
2022-08-30T13:12:40.393Z,34.70
2022-08-30T13:15:16.421Z,34.52
2022-08-30T13:17:45.371Z,35.23
2022-08-30T13:20:27.050Z,34.89
2022-08-30T13:23:06.086Z,34.59
2022-08-30T13:25:35.912Z,34.97
2022-08-30T13:28:06.317Z,34.77
2022-08-30T13:30:35.318Z,34.81
2022-08-30T13:33:03.551Z,34.09
2022-08-30T13:35:32.453Z,33.73
2022-08-30T13:38:02.088Z,34.08
2022-08-30T13:40:30.376Z,33.93
2022-08-30T13:42:59.876Z,33.91
2022-08-30T13:45:43.615Z,34.11
2022-08-30T13:48:13.487Z,33.64
2022-08-30T13:50:42.888Z,34.31
2022-08-30T13:53:11.502Z,33.90
2022-08-30T13:55:42.520Z,32.67
2022-08-30T13:58:13.789Z,32.86
2022-08-30T14:00:42.099Z,31.86
2022-08-30T14:03:11.738Z,31.44
2022-08-30T14:05:50.222Z,31.72
2022-08-30T14:11:12.505Z,31.08
2022-08-30T14:16:32.643Z,31.36
2022-08-30T14:19:01.729Z,31.23
2022-08-30T14:21:29.796Z,31.89
2022-08-30T14:23:58.806Z,33.08
2022-08-30T14:26:33.262Z,33.86
2022-08-30T14:29:04.793Z,34.53
2022-08-30T14:31:33.527Z,34.87
2022-08-30T14:34:03.259Z,34.14
2022-08-30T14:36:32.523Z,33.70
2022-08-30T14:39:00.566Z,33.20
2022-08-30T14:41:28.773Z,33.35
2022-08-30T14:43:57.139Z,33.48
2022-08-30T14:46:26.865Z,33.10
2022-08-30T14:48:55.386Z,33.77
2022-08-30T14:51:24.291Z,34.23
2022-08-30T14:53:54.732Z,34.42
2022-08-30T14:56:24.099Z,33.83
2022-08-30T14:58:54.477Z,32.89
2022-08-30T15:01:22.955Z,33.15
2022-08-30T15:03:52.717Z,32.50
2022-08-30T15:06:21.227Z,31.95
2022-08-30T15:08:49.899Z,32.06
2022-08-30T15:11:20.667Z,32.87
2022-08-30T15:13:49.376Z,32.74
2022-08-30T15:16:23.424Z,32.74
2022-08-30T15:18:54.081Z,31.95
2022-08-30T15:21:26.785Z,32.18
2022-08-30T15:23:55.733Z,32.21
2022-08-30T15:26:24.683Z,32.77
2022-08-30T15:28:53.542Z,32.88
2022-08-30T15:31:23.406Z,31.77
2022-08-30T15:33:52.809Z,30.72
2022-08-30T15:36:21.212Z,30.13
2022-08-30T15:38:49.730Z,29.84
2022-08-30T15:41:18.211Z,29.86
2022-08-30T15:43:46.591Z,30.36
2022-08-30T15:46:22.710Z,30.59
2022-08-30T15:48:55.221Z,30.61
2022-08-30T15:51:24.409Z,30.56
2022-08-30T15:53:53.116Z,30.17
2022-08-30T15:56:21.689Z,29.86
2022-08-30T15:58:50.127Z,29.59
2022-08-30T16:01:30.146Z,29.48
2022-08-30T16:04:00.952Z,29.96
2022-08-30T16:06:32.254Z,29.99
2022-08-30T16:09:00.458Z,30.26
2022-08-30T16:11:28.497Z,30.18
2022-08-30T16:13:57.828Z,30.22
2022-08-30T16:16:26.294Z,30.21
2022-08-30T16:18:55.565Z,30.32
2022-08-30T16:21:27.783Z,30.22
2022-08-30T16:23:57.314Z,30.01
2022-08-30T16:26:26.648Z,29.82
2022-08-30T16:28:55.023Z,29.92
2022-08-30T16:31:26.108Z,29.94
2022-08-30T16:33:55.085Z,29.62
2022-08-30T16:36:27.531Z,29.76
2022-08-30T16:38:58.335Z,29.57
2022-08-30T16:41:26.943Z,29.61
2022-08-30T16:43:55.563Z,29.39
2022-08-30T16:46:27.318Z,29.08
2022-08-30T16:48:57.692Z,28.86
2022-08-30T16:51:29.856Z,28.71
2022-08-30T16:54:00.293Z,28.40
2022-08-30T16:56:31.486Z,28.65
2022-08-30T16:59:02.972Z,28.63
2022-08-30T17:01:34.940Z,28.54
2022-08-30T17:04:04.195Z,28.54
2022-08-30T17:06:35.828Z,28.29
2022-08-30T17:09:04.833Z,28.11
2022-08-30T17:11:33.067Z,28.08
2022-08-30T17:14:01.737Z,27.84
2022-08-30T17:16:30.573Z,27.70
2022-08-30T17:18:59.903Z,27.64
2022-08-30T17:21:29.676Z,27.58
2022-08-30T17:24:02.290Z,27.57
2022-08-30T17:26:32.244Z,27.23
2022-08-30T17:29:00.088Z,27.12
2022-08-30T17:31:30.415Z,27.09
2022-08-30T17:34:03.018Z,26.97
2022-08-30T17:36:32.862Z,26.98
2022-08-30T17:39:10.982Z,26.83
2022-08-30T17:41:43.350Z,26.76
2022-08-30T17:44:18.312Z,26.62
2022-08-30T17:46:46.726Z,26.54
2022-08-30T17:49:15.241Z,26.47
2022-08-30T17:51:44.271Z,26.46
2022-08-30T17:54:14.436Z,26.28
2022-08-30T17:56:43.066Z,26.18
2022-08-30T17:59:12.050Z,26.08
2022-08-30T18:01:41.586Z,26.11
2022-08-30T18:04:11.446Z,25.92
2022-08-30T18:06:40.021Z,25.86
2022-08-30T18:09:09.505Z,25.69
2022-08-30T18:11:40.626Z,25.45
2022-08-30T18:14:11.047Z,25.36
2022-08-30T18:16:49.999Z,25.27
2022-08-30T18:19:23.584Z,25.18
2022-08-30T18:21:51.981Z,25.03
2022-08-30T18:24:20.168Z,24.79
2022-08-30T18:26:50.173Z,24.53
2022-08-30T18:29:26.270Z,24.35
2022-08-30T18:31:59.722Z,24.17
2022-08-30T18:34:28.525Z,24.04
2022-08-30T18:36:56.934Z,23.98
2022-08-30T18:39:25.814Z,23.82
2022-08-30T18:41:55.606Z,23.73
2022-08-30T18:44:29.149Z,23.80
2022-08-30T18:47:00.713Z,23.88
2022-08-30T18:49:32.137Z,23.78
2022-08-30T18:52:01.145Z,23.71
2022-08-30T18:54:30.180Z,23.51
2022-08-30T18:57:00.089Z,23.44
2022-08-30T18:59:31.448Z,23.43
2022-08-30T19:02:04.443Z,23.48
2022-08-30T19:04:35.443Z,23.33
2022-08-30T19:07:05.734Z,23.11
2022-08-30T19:09:34.126Z,23.07
2022-08-30T19:12:04.146Z,22.93
2022-08-30T19:14:37.672Z,22.79
2022-08-30T19:17:07.351Z,22.94
2022-08-30T19:19:48.305Z,23.10
2022-08-30T19:22:18.991Z,23.04
2022-08-30T19:24:49.633Z,23.01
2022-08-30T19:27:37.943Z,23.31
2022-08-30T19:30:11.082Z,23.35
2022-08-30T19:32:39.264Z,23.49
2022-08-30T19:35:08.938Z,23.77
2022-08-30T19:37:37.474Z,23.81
2022-08-30T19:40:08.203Z,23.77
2022-08-30T19:42:46.075Z,23.93
2022-08-30T19:45:18.685Z,23.96
2022-08-30T19:47:50.242Z,23.81
2022-08-30T19:50:19.347Z,23.81
2022-08-30T19:52:53.411Z,23.73
2022-08-30T19:55:28.358Z,23.57
2022-08-30T19:57:59.604Z,23.53
2022-08-30T20:00:31.156Z,23.44
2022-08-30T20:03:00.088Z,23.50
2022-08-30T20:05:30.209Z,23.48
2022-08-30T20:07:58.583Z,23.42
2022-08-30T20:10:26.935Z,23.29
2022-08-30T20:12:55.298Z,23.26
2022-08-30T20:15:26.131Z,23.29
2022-08-30T20:18:05.878Z,23.25
2022-08-30T20:20:36.509Z,23.25
2022-08-30T20:23:05.703Z,23.26
2022-08-30T20:25:34.257Z,23.33
2022-08-30T20:28:03.651Z,23.37
2022-08-30T20:30:33.270Z,23.38
2022-08-30T20:33:06.963Z,23.42
2022-08-30T20:35:38.270Z,23.35
2022-08-30T20:38:06.976Z,23.44
2022-08-30T20:40:36.961Z,23.43
2022-08-30T20:43:05.952Z,23.58
2022-08-30T20:45:35.466Z,23.44
2022-08-30T20:48:05.675Z,23.47
2022-08-30T20:50:33.733Z,23.43
2022-08-30T20:53:01.860Z,23.31
2022-08-30T20:55:30.048Z,23.31
2022-08-30T20:57:58.142Z,23.29
2022-08-30T21:00:26.670Z,23.31
2022-08-30T21:02:56.757Z,23.36
2022-08-30T21:05:24.846Z,23.30
2022-08-30T21:07:52.885Z,23.47
2022-08-30T21:10:23.482Z,23.50
2022-08-30T21:12:52.041Z,23.46
2022-08-30T21:15:37.176Z,23.36
2022-08-30T21:18:07.981Z,23.41
2022-08-30T21:20:35.958Z,23.39
2022-08-30T21:23:03.955Z,23.23
2022-08-30T21:25:33.963Z,23.39
2022-08-30T21:28:02.247Z,23.27
2022-08-30T21:30:30.379Z,23.18
2022-08-30T21:33:00.063Z,23.20
2022-08-30T21:35:47.288Z,23.20
2022-08-30T21:38:15.832Z,23.16
2022-08-30T21:40:45.057Z,23.10
2022-08-30T21:43:13.590Z,23.24
2022-08-30T21:45:42.485Z,23.17
2022-08-30T21:48:11.144Z,23.08
2022-08-30T21:50:41.669Z,23.01
2022-08-30T21:53:10.498Z,22.98
2022-08-30T21:55:38.557Z,22.78
2022-08-30T21:58:06.575Z,22.88
2022-08-30T22:00:34.745Z,22.76
2022-08-30T22:03:02.791Z,22.83
2022-08-30T22:05:30.915Z,22.75
2022-08-30T22:08:00.260Z,22.79
2022-08-30T22:10:32.836Z,22.65
2022-08-30T22:13:01.418Z,22.62
2022-08-30T22:15:32.124Z,22.69
2022-08-30T22:18:00.520Z,22.82
2022-08-30T22:20:30.379Z,22.62
2022-08-30T22:23:00.118Z,22.54
2022-08-30T22:25:28.155Z,22.58
2022-08-30T22:27:56.147Z,22.58
2022-08-30T22:30:24.423Z,22.51
2022-08-30T22:32:54.156Z,22.68
2022-08-30T22:35:23.041Z,22.73
2022-08-30T22:37:53.623Z,22.58
2022-08-30T22:40:23.634Z,22.68
2022-08-30T22:42:51.682Z,22.74
2022-08-30T22:45:19.727Z,22.55
2022-08-30T22:47:48.008Z,22.45
2022-08-30T22:50:16.415Z,22.52
2022-08-30T22:52:44.461Z,22.57
2022-08-30T22:55:12.515Z,22.45
2022-08-30T22:57:42.109Z,22.47
2022-08-30T23:00:12.250Z,22.42
2022-08-30T23:02:40.340Z,22.58
2022-08-30T23:05:09.362Z,22.47
2022-08-30T23:07:37.414Z,22.40
2022-08-30T23:10:06.912Z,22.41
2022-08-30T23:12:36.783Z,22.41
2022-08-30T23:15:08.403Z,22.29
2022-08-30T23:17:38.715Z,22.23
2022-08-30T23:20:09.146Z,22.18
2022-08-30T23:22:37.478Z,22.16
2022-08-30T23:25:24.396Z,22.20
2022-08-30T23:28:11.376Z,22.25
2022-08-30T23:31:04.449Z,22.31
2022-08-30T23:33:50.289Z,22.24
2022-08-30T23:36:35.972Z,22.26
2022-08-30T23:39:21.573Z,22.15
2022-08-30T23:42:07.205Z,22.28
2022-08-30T23:44:52.841Z,22.14
2022-08-30T23:47:39.537Z,22.22
2022-08-30T23:50:25.779Z,22.05
2022-08-30T23:53:11.625Z,22.09
2022-08-30T23:55:58.010Z,22.05
2022-08-30T23:58:43.763Z,22.16
